sensor_id;sensor_type;location;lat;lon;timestamp;P1;durP1;ratioP1;P2;durP2;ratioP2
32455;SDS011;18912;43.270;27.942;2023-07-13T00:01:37;42.83;;;27.23;;
32455;SDS011;18912;43.270;27.942;2023-07-13T00:04:03;41.42;;;27.15;;
32455;SDS011;18912;43.270;27.942;2023-07-13T00:06:29;38.53;;;27.00;;
32455;SDS011;18912;43.270;27.942;2023-07-13T00:08:57;41.50;;;25.73;;
32455;SDS011;18912;43.270;27.942;2023-07-13T00:11:24;38.90;;;24.85;;
32455;SDS011;18912;43.270;27.942;2023-07-13T00:13:49;31.77;;;24.13;;
32455;SDS011;18912;43.270;27.942;2023-07-13T00:16:15;43.22;;;24.50;;
32455;SDS011;18912;43.270;27.942;2023-07-13T00:18:41;37.07;;;24.10;;
32455;SDS011;18912;43.270;27.942;2023-07-13T00:21:06;39.63;;;24.60;;
32455;SDS011;18912;43.270;27.942;2023-07-13T00:23:33;38.27;;;24.50;;
32455;SDS011;18912;43.270;27.942;2023-07-13T00:26:03;37.97;;;23.75;;
32455;SDS011;18912;43.270;27.942;2023-07-13T00:28:30;34.00;;;25.40;;
32455;SDS011;18912;43.270;27.942;2023-07-13T00:30:56;35.97;;;26.53;;
32455;SDS011;18912;43.270;27.942;2023-07-13T00:33:21;45.17;;;26.00;;
32455;SDS011;18912;43.270;27.942;2023-07-13T00:35:48;34.65;;;25.77;;
32455;SDS011;18912;43.270;27.942;2023-07-13T00:38:14;34.28;;;23.10;;
32455;SDS011;18912;43.270;27.942;2023-07-13T00:40:39;30.73;;;23.43;;
32455;SDS011;18912;43.270;27.942;2023-07-13T00:43:13;31.40;;;22.60;;
32455;SDS011;18912;43.270;27.942;2023-07-13T00:48:09;35.13;;;23.25;;
32455;SDS011;18912;43.270;27.942;2023-07-13T00:50:37;34.88;;;23.42;;
32455;SDS011;18912;43.270;27.942;2023-07-13T00:53:03;35.60;;;22.95;;
32455;SDS011;18912;43.270;27.942;2023-07-13T00:55:28;32.90;;;23.80;;
32455;SDS011;18912;43.270;27.942;2023-07-13T00:57:54;35.20;;;22.90;;
32455;SDS011;18912;43.270;27.942;2023-07-13T01:02:47;38.63;;;25.17;;
32455;SDS011;18912;43.270;27.942;2023-07-13T01:07:40;42.90;;;26.58;;
32455;SDS011;18912;43.270;27.942;2023-07-13T01:10:09;33.22;;;24.02;;
32455;SDS011;18912;43.270;27.942;2023-07-13T01:12:55;42.33;;;24.52;;
32455;SDS011;18912;43.270;27.942;2023-07-13T01:18:07;29.05;;;23.83;;
32455;SDS011;18912;43.270;27.942;2023-07-13T01:21:16;43.42;;;24.33;;
32455;SDS011;18912;43.270;27.942;2023-07-13T01:23:35;35.63;;;24.48;;
32455;SDS011;18912;43.270;27.942;2023-07-13T01:26:01;37.07;;;25.33;;
32455;SDS011;18912;43.270;27.942;2023-07-13T01:28:28;33.55;;;25.02;;
32455;SDS011;18912;43.270;27.942;2023-07-13T01:30:55;42.22;;;25.13;;
32455;SDS011;18912;43.270;27.942;2023-07-13T01:33:22;36.22;;;24.65;;
32455;SDS011;18912;43.270;27.942;2023-07-13T01:35:48;36.70;;;24.25;;
32455;SDS011;18912;43.270;27.942;2023-07-13T01:38:15;33.47;;;23.65;;
32455;SDS011;18912;43.270;27.942;2023-07-13T01:40:42;37.42;;;24.52;;
32455;SDS011;18912;43.270;27.942;2023-07-13T01:43:08;44.92;;;25.45;;
32455;SDS011;18912;43.270;27.942;2023-07-13T01:45:34;40.60;;;25.73;;
32455;SDS011;18912;43.270;27.942;2023-07-13T01:48:00;30.35;;;24.27;;
32455;SDS011;18912;43.270;27.942;2023-07-13T01:50:26;34.50;;;24.63;;
32455;SDS011;18912;43.270;27.942;2023-07-13T01:52:52;35.42;;;24.60;;
32455;SDS011;18912;43.270;27.942;2023-07-13T01:55:18;34.63;;;25.37;;
32455;SDS011;18912;43.270;27.942;2023-07-13T01:57:43;41.50;;;27.03;;
32455;SDS011;18912;43.270;27.942;2023-07-13T02:00:09;44.83;;;26.27;;
32455;SDS011;18912;43.270;27.942;2023-07-13T02:02:36;36.58;;;26.83;;
32455;SDS011;18912;43.270;27.942;2023-07-13T02:05:02;40.63;;;27.90;;
32455;SDS011;18912;43.270;27.942;2023-07-13T02:07:28;37.20;;;27.95;;
32455;SDS011;18912;43.270;27.942;2023-07-13T02:09:53;37.10;;;26.27;;
32455;SDS011;18912;43.270;27.942;2023-07-13T02:12:19;32.90;;;24.97;;
32455;SDS011;18912;43.270;27.942;2023-07-13T02:14:45;39.23;;;25.60;;
32455;SDS011;18912;43.270;27.942;2023-07-13T02:17:11;36.60;;;24.03;;
32455;SDS011;18912;43.270;27.942;2023-07-13T02:22:02;32.92;;;25.20;;
32455;SDS011;18912;43.270;27.942;2023-07-13T02:24:28;40.00;;;26.00;;
32455;SDS011;18912;43.270;27.942;2023-07-13T02:26:54;43.87;;;25.93;;
32455;SDS011;18912;43.270;27.942;2023-07-13T02:29:20;36.07;;;26.03;;
32455;SDS011;18912;43.270;27.942;2023-07-13T02:31:45;36.67;;;25.80;;
32455;SDS011;18912;43.270;27.942;2023-07-13T02:34:11;47.53;;;27.73;;
32455;SDS011;18912;43.270;27.942;2023-07-13T02:36:37;40.27;;;25.43;;
32455;SDS011;18912;43.270;27.942;2023-07-13T02:39:03;45.43;;;23.93;;
32455;SDS011;18912;43.270;27.942;2023-07-13T02:41:30;31.08;;;23.38;;
32455;SDS011;18912;43.270;27.942;2023-07-13T02:43:57;33.57;;;22.37;;
32455;SDS011;18912;43.270;27.942;2023-07-13T02:46:32;31.85;;;21.20;;
32455;SDS011;18912;43.270;27.942;2023-07-13T02:48:59;29.90;;;21.83;;
32455;SDS011;18912;43.270;27.942;2023-07-13T02:51:25;27.17;;;19.98;;
32455;SDS011;18912;43.270;27.942;2023-07-13T02:53:50;34.77;;;20.43;;
32455;SDS011;18912;43.270;27.942;2023-07-13T02:56:16;25.80;;;18.87;;
32455;SDS011;18912;43.270;27.942;2023-07-13T02:58:43;26.10;;;20.90;;
32455;SDS011;18912;43.270;27.942;2023-07-13T03:01:09;23.37;;;16.20;;
32455;SDS011;18912;43.270;27.942;2023-07-13T03:03:36;23.30;;;14.45;;
32455;SDS011;18912;43.270;27.942;2023-07-13T03:08:30;25.77;;;16.58;;
32455;SDS011;18912;43.270;27.942;2023-07-13T03:11:03;20.88;;;15.23;;
32455;SDS011;18912;43.270;27.942;2023-07-13T03:13:30;24.17;;;15.88;;
32455;SDS011;18912;43.270;27.942;2023-07-13T03:15:56;18.50;;;14.13;;
32455;SDS011;18912;43.270;27.942;2023-07-13T03:18:22;18.97;;;15.13;;
32455;SDS011;18912;43.270;27.942;2023-07-13T03:20:50;24.70;;;14.27;;
32455;SDS011;18912;43.270;27.942;2023-07-13T03:23:16;24.35;;;13.20;;
32455;SDS011;18912;43.270;27.942;2023-07-13T03:25:42;27.40;;;13.93;;
32455;SDS011;18912;43.270;27.942;2023-07-13T03:28:07;27.07;;;13.87;;
32455;SDS011;18912;43.270;27.942;2023-07-13T03:30:33;19.80;;;13.10;;
32455;SDS011;18912;43.270;27.942;2023-07-13T03:32:59;24.53;;;13.60;;
32455;SDS011;18912;43.270;27.942;2023-07-13T03:35:24;23.00;;;14.40;;
32455;SDS011;18912;43.270;27.942;2023-07-13T03:37:50;20.57;;;14.37;;
32455;SDS011;18912;43.270;27.942;2023-07-13T03:40:16;25.08;;;13.32;;
32455;SDS011;18912;43.270;27.942;2023-07-13T03:42:42;20.23;;;14.10;;
32455;SDS011;18912;43.270;27.942;2023-07-13T03:45:08;23.73;;;13.33;;
32455;SDS011;18912;43.270;27.942;2023-07-13T03:47:33;21.00;;;14.20;;
32455;SDS011;18912;43.270;27.942;2023-07-13T03:49:59;20.13;;;13.43;;
32455;SDS011;18912;43.270;27.942;2023-07-13T03:52:24;21.23;;;13.37;;
32455;SDS011;18912;43.270;27.942;2023-07-13T03:54:50;18.07;;;13.23;;
32455;SDS011;18912;43.270;27.942;2023-07-13T03:57:16;23.00;;;13.60;;
32455;SDS011;18912;43.270;27.942;2023-07-13T03:59:41;20.37;;;13.43;;
32455;SDS011;18912;43.270;27.942;2023-07-13T04:02:07;29.53;;;14.13;;
32455;SDS011;18912;43.270;27.942;2023-07-13T04:04:33;18.33;;;12.68;;
32455;SDS011;18912;43.270;27.942;2023-07-13T04:06:59;27.58;;;13.95;;
32455;SDS011;18912;43.270;27.942;2023-07-13T04:09:24;20.67;;;12.90;;
32455;SDS011;18912;43.270;27.942;2023-07-13T04:11:50;19.77;;;12.48;;
32455;SDS011;18912;43.270;27.942;2023-07-13T04:14:16;16.42;;;12.48;;
32455;SDS011;18912;43.270;27.942;2023-07-13T04:16:42;19.43;;;13.40;;
32455;SDS011;18912;43.270;27.942;2023-07-13T04:19:08;23.27;;;12.60;;
32455;SDS011;18912;43.270;27.942;2023-07-13T04:24:01;19.38;;;12.52;;
32455;SDS011;18912;43.270;27.942;2023-07-13T04:26:26;28.47;;;12.90;;
32455;SDS011;18912;43.270;27.942;2023-07-13T04:28:52;19.40;;;11.80;;
32455;SDS011;18912;43.270;27.942;2023-07-13T04:31:17;23.03;;;11.67;;
32455;SDS011;18912;43.270;27.942;2023-07-13T04:33:43;20.42;;;11.82;;
32455;SDS011;18912;43.270;27.942;2023-07-13T04:36:09;17.37;;;12.13;;
32455;SDS011;18912;43.270;27.942;2023-07-13T04:38:37;23.10;;;13.05;;
32455;SDS011;18912;43.270;27.942;2023-07-13T04:41:04;19.27;;;11.80;;
32455;SDS011;18912;43.270;27.942;2023-07-13T04:43:31;22.55;;;12.35;;
32455;SDS011;18912;43.270;27.942;2023-07-13T04:46:02;19.75;;;12.73;;
32455;SDS011;18912;43.270;27.942;2023-07-13T04:48:29;22.50;;;11.43;;
32455;SDS011;18912;43.270;27.942;2023-07-13T04:50:55;20.20;;;11.87;;
32455;SDS011;18912;43.270;27.942;2023-07-13T04:53:22;17.45;;;11.20;;
32455;SDS011;18912;43.270;27.942;2023-07-13T04:55:48;21.50;;;10.90;;
32455;SDS011;18912;43.270;27.942;2023-07-13T04:58:13;22.80;;;10.10;;
32455;SDS011;18912;43.270;27.942;2023-07-13T05:00:39;20.07;;;10.67;;
32455;SDS011;18912;43.270;27.942;2023-07-13T05:03:04;16.73;;;10.50;;
32455;SDS011;18912;43.270;27.942;2023-07-13T05:05:30;16.92;;;10.90;;
32455;SDS011;18912;43.270;27.942;2023-07-13T05:07:56;20.55;;;10.50;;
32455;SDS011;18912;43.270;27.942;2023-07-13T05:10:22;21.63;;;9.47;;
32455;SDS011;18912;43.270;27.942;2023-07-13T05:12:47;24.60;;;10.02;;
32455;SDS011;18912;43.270;27.942;2023-07-13T05:15:13;18.33;;;10.80;;
32455;SDS011;18912;43.270;27.942;2023-07-13T05:17:39;29.58;;;10.45;;
32455;SDS011;18912;43.270;27.942;2023-07-13T05:20:05;23.13;;;10.32;;
32455;SDS011;18912;43.270;27.942;2023-07-13T05:22:32;20.00;;;10.10;;
32455;SDS011;18912;43.270;27.942;2023-07-13T05:25:00;30.20;;;9.70;;
32455;SDS011;18912;43.270;27.942;2023-07-13T05:27:26;24.85;;;9.95;;
32455;SDS011;18912;43.270;27.942;2023-07-13T05:29:51;18.17;;;9.60;;
32455;SDS011;18912;43.270;27.942;2023-07-13T05:32:17;20.83;;;9.47;;
32455;SDS011;18912;43.270;27.942;2023-07-13T05:34:43;20.85;;;9.60;;
32455;SDS011;18912;43.270;27.942;2023-07-13T05:37:09;15.53;;;9.47;;
32455;SDS011;18912;43.270;27.942;2023-07-13T05:39:35;19.88;;;9.80;;
32455;SDS011;18912;43.270;27.942;2023-07-13T05:42:01;21.27;;;10.57;;
32455;SDS011;18912;43.270;27.942;2023-07-13T05:44:27;14.52;;;9.32;;
32455;SDS011;18912;43.270;27.942;2023-07-13T05:46:53;19.57;;;9.50;;
32455;SDS011;18912;43.270;27.942;2023-07-13T05:49:21;22.38;;;9.98;;
32455;SDS011;18912;43.270;27.942;2023-07-13T05:51:46;20.43;;;10.30;;
32455;SDS011;18912;43.270;27.942;2023-07-13T05:54:12;18.60;;;10.00;;
32455;SDS011;18912;43.270;27.942;2023-07-13T05:56:37;19.03;;;9.67;;
32455;SDS011;18912;43.270;27.942;2023-07-13T05:59:02;16.67;;;9.43;;
32455;SDS011;18912;43.270;27.942;2023-07-13T06:01:29;23.90;;;10.10;;
32455;SDS011;18912;43.270;27.942;2023-07-13T06:03:55;15.60;;;9.80;;
32455;SDS011;18912;43.270;27.942;2023-07-13T06:06:20;24.37;;;10.00;;
32455;SDS011;18912;43.270;27.942;2023-07-13T06:08:46;21.87;;;10.03;;
32455;SDS011;18912;43.270;27.942;2023-07-13T06:13:44;18.63;;;9.52;;
32455;SDS011;18912;43.270;27.942;2023-07-13T06:16:12;18.17;;;10.67;;
32455;SDS011;18912;43.270;27.942;2023-07-13T06:18:38;19.60;;;9.85;;
32455;SDS011;18912;43.270;27.942;2023-07-13T06:21:08;27.00;;;10.70;;
32455;SDS011;18912;43.270;27.942;2023-07-13T06:23:35;23.05;;;9.90;;
32455;SDS011;18912;43.270;27.942;2023-07-13T06:26:00;23.42;;;10.45;;
32455;SDS011;18912;43.270;27.942;2023-07-13T06:28:26;22.23;;;10.10;;
32455;SDS011;18912;43.270;27.942;2023-07-13T06:30:53;30.27;;;10.38;;
32455;SDS011;18912;43.270;27.942;2023-07-13T06:33:18;19.93;;;10.03;;
32455;SDS011;18912;43.270;27.942;2023-07-13T06:35:44;19.07;;;10.47;;
32455;SDS011;18912;43.270;27.942;2023-07-13T06:38:09;15.83;;;10.13;;
32455;SDS011;18912;43.270;27.942;2023-07-13T06:40:35;15.40;;;10.73;;
32455;SDS011;18912;43.270;27.942;2023-07-13T06:43:00;16.53;;;9.73;;
32455;SDS011;18912;43.270;27.942;2023-07-13T06:45:25;29.90;;;10.53;;
32455;SDS011;18912;43.270;27.942;2023-07-13T06:47:51;14.80;;;9.30;;
32455;SDS011;18912;43.270;27.942;2023-07-13T06:50:16;16.83;;;9.60;;
32455;SDS011;18912;43.270;27.942;2023-07-13T06:52:42;18.17;;;10.10;;
32455;SDS011;18912;43.270;27.942;2023-07-13T06:55:08;19.00;;;10.43;;
32455;SDS011;18912;43.270;27.942;2023-07-13T06:57:33;17.52;;;10.15;;
32455;SDS011;18912;43.270;27.942;2023-07-13T06:59:59;19.07;;;10.13;;
32455;SDS011;18912;43.270;27.942;2023-07-13T07:02:24;26.48;;;9.82;;
32455;SDS011;18912;43.270;27.942;2023-07-13T07:04:50;16.73;;;9.63;;
32455;SDS011;18912;43.270;27.942;2023-07-13T07:07:16;16.58;;;9.77;;
32455;SDS011;18912;43.270;27.942;2023-07-13T07:09:41;20.30;;;10.18;;
32455;SDS011;18912;43.270;27.942;2023-07-13T07:12:07;12.55;;;9.43;;
32455;SDS011;18912;43.270;27.942;2023-07-13T07:14:32;14.60;;;9.02;;
32455;SDS011;18912;43.270;27.942;2023-07-13T07:16:59;18.35;;;9.77;;
32455;SDS011;18912;43.270;27.942;2023-07-13T07:19:25;18.63;;;8.75;;
32455;SDS011;18912;43.270;27.942;2023-07-13T07:21:50;35.70;;;10.15;;
32455;SDS011;18912;43.270;27.942;2023-07-13T07:24:16;21.00;;;8.33;;
32455;SDS011;18912;43.270;27.942;2023-07-13T07:26:41;14.60;;;9.13;;
32455;SDS011;18912;43.270;27.942;2023-07-13T07:29:07;15.48;;;8.48;;
32455;SDS011;18912;43.270;27.942;2023-07-13T07:31:32;11.55;;;8.60;;
32455;SDS011;18912;43.270;27.942;2023-07-13T07:33:58;12.35;;;8.00;;
32455;SDS011;18912;43.270;27.942;2023-07-13T07:36:23;16.80;;;8.75;;
32455;SDS011;18912;43.270;27.942;2023-07-13T07:38:49;15.30;;;7.90;;
32455;SDS011;18912;43.270;27.942;2023-07-13T07:41:14;14.50;;;8.30;;
32455;SDS011;18912;43.270;27.942;2023-07-13T07:43:40;18.48;;;8.48;;
32455;SDS011;18912;43.270;27.942;2023-07-13T07:46:05;12.52;;;8.25;;
32455;SDS011;18912;43.270;27.942;2023-07-13T07:48:31;10.20;;;7.72;;
32455;SDS011;18912;43.270;27.942;2023-07-13T07:50:57;14.55;;;8.35;;
32455;SDS011;18912;43.270;27.942;2023-07-13T07:53:22;22.65;;;8.73;;
32455;SDS011;18912;43.270;27.942;2023-07-13T07:55:48;10.43;;;8.00;;
32455;SDS011;18912;43.270;27.942;2023-07-13T07:58:13;22.63;;;8.65;;
32455;SDS011;18912;43.270;27.942;2023-07-13T08:00:39;25.02;;;9.48;;
32455;SDS011;18912;43.270;27.942;2023-07-13T08:03:05;17.58;;;8.15;;
32455;SDS011;18912;43.270;27.942;2023-07-13T08:05:31;15.48;;;7.72;;
32455;SDS011;18912;43.270;27.942;2023-07-13T08:08:00;17.60;;;8.25;;
32455;SDS011;18912;43.270;27.942;2023-07-13T08:10:25;20.52;;;8.23;;
32455;SDS011;18912;43.270;27.942;2023-07-13T08:12:51;17.88;;;7.93;;
32455;SDS011;18912;43.270;27.942;2023-07-13T08:17:44;14.25;;;7.82;;
32455;SDS011;18912;43.270;27.942;2023-07-13T08:20:09;24.13;;;8.68;;
32455;SDS011;18912;43.270;27.942;2023-07-13T08:22:35;23.42;;;8.30;;
32455;SDS011;18912;43.270;27.942;2023-07-13T08:27:27;22.85;;;9.07;;
32455;SDS011;18912;43.270;27.942;2023-07-13T08:29:53;23.67;;;8.27;;
32455;SDS011;18912;43.270;27.942;2023-07-13T08:32:19;25.13;;;9.60;;
32455;SDS011;18912;43.270;27.942;2023-07-13T08:34:46;23.50;;;9.25;;
32455;SDS011;18912;43.270;27.942;2023-07-13T08:37:13;17.00;;;8.30;;
32455;SDS011;18912;43.270;27.942;2023-07-13T08:39:42;18.67;;;7.32;;
32455;SDS011;18912;43.270;27.942;2023-07-13T08:45:04;22.80;;;8.20;;
32455;SDS011;18912;43.270;27.942;2023-07-13T08:47:37;15.30;;;8.60;;
32455;SDS011;18912;43.270;27.942;2023-07-13T08:50:12;10.70;;;7.82;;
32455;SDS011;18912;43.270;27.942;2023-07-13T08:52:41;21.35;;;8.25;;
32455;SDS011;18912;43.270;27.942;2023-07-13T08:55:21;12.88;;;7.63;;
32455;SDS011;18912;43.270;27.942;2023-07-13T08:57:56;23.08;;;8.68;;
32455;SDS011;18912;43.270;27.942;2023-07-13T09:00:38;22.15;;;7.90;;
32455;SDS011;18912;43.270;27.942;2023-07-13T09:03:20;20.77;;;8.23;;
32455;SDS011;18912;43.270;27.942;2023-07-13T09:05:51;22.63;;;8.15;;
32455;SDS011;18912;43.270;27.942;2023-07-13T09:14:40;16.95;;;8.38;;
32455;SDS011;18912;43.270;27.942;2023-07-13T09:16:47;19.58;;;9.40;;
32455;SDS011;18912;43.270;27.942;2023-07-13T09:19:20;20.98;;;8.98;;
32455;SDS011;18912;43.270;27.942;2023-07-13T09:21:50;25.73;;;9.55;;
32455;SDS011;18912;43.270;27.942;2023-07-13T09:27:19;17.73;;;9.43;;
32455;SDS011;18912;43.270;27.942;2023-07-13T09:29:55;22.63;;;9.43;;
32455;SDS011;18912;43.270;27.942;2023-07-13T09:32:28;15.10;;;8.32;;
32455;SDS011;18912;43.270;27.942;2023-07-13T09:34:54;21.73;;;8.73;;
32455;SDS011;18912;43.270;27.942;2023-07-13T09:39:48;22.55;;;9.73;;
32455;SDS011;18912;43.270;27.942;2023-07-13T09:42:16;13.45;;;8.68;;
32455;SDS011;18912;43.270;27.942;2023-07-13T09:47:22;17.45;;;8.98;;
32455;SDS011;18912;43.270;27.942;2023-07-13T09:50:04;15.18;;;9.25;;
32455;SDS011;18912;43.270;27.942;2023-07-13T09:52:45;27.02;;;9.32;;
32455;SDS011;18912;43.270;27.942;2023-07-13T10:00:34;18.50;;;9.80;;
32455;SDS011;18912;43.270;27.942;2023-07-13T10:03:04;16.35;;;9.85;;
32455;SDS011;18912;43.270;27.942;2023-07-13T10:05:40;33.00;;;10.40;;
32455;SDS011;18912;43.270;27.942;2023-07-13T10:08:23;18.90;;;9.52;;
32455;SDS011;18912;43.270;27.942;2023-07-13T10:11:08;22.13;;;9.30;;
32455;SDS011;18912;43.270;27.942;2023-07-13T10:13:36;14.85;;;9.52;;
32455;SDS011;18912;43.270;27.942;2023-07-13T10:16:07;22.25;;;10.10;;
32455;SDS011;18912;43.270;27.942;2023-07-13T10:18:45;18.65;;;9.77;;
32455;SDS011;18912;43.270;27.942;2023-07-13T10:21:16;20.35;;;10.23;;
32455;SDS011;18912;43.270;27.942;2023-07-13T10:23:45;15.18;;;9.52;;
32455;SDS011;18912;43.270;27.942;2023-07-13T10:26:19;14.63;;;9.10;;
32455;SDS011;18912;43.270;27.942;2023-07-13T10:28:51;20.67;;;9.80;;
32455;SDS011;18912;43.270;27.942;2023-07-13T10:31:20;27.95;;;10.25;;
32455;SDS011;18912;43.270;27.942;2023-07-13T10:33:46;20.70;;;10.20;;
32455;SDS011;18912;43.270;27.942;2023-07-13T10:39:00;22.83;;;9.93;;
32455;SDS011;18912;43.270;27.942;2023-07-13T10:41:29;22.10;;;10.05;;
32455;SDS011;18912;43.270;27.942;2023-07-13T10:43:58;17.67;;;8.85;;
32455;SDS011;18912;43.270;27.942;2023-07-13T10:46:26;13.57;;;9.27;;
32455;SDS011;18912;43.270;27.942;2023-07-13T10:48:55;15.77;;;9.55;;
32455;SDS011;18912;43.270;27.942;2023-07-13T10:51:24;19.20;;;10.27;;
32455;SDS011;18912;43.270;27.942;2023-07-13T10:56:38;21.67;;;9.57;;
32455;SDS011;18912;43.270;27.942;2023-07-13T11:04:41;15.43;;;9.27;;
32455;SDS011;18912;43.270;27.942;2023-07-13T11:07:24;11.98;;;9.30;;
32455;SDS011;18912;43.270;27.942;2023-07-13T11:09:52;22.77;;;8.90;;
32455;SDS011;18912;43.270;27.942;2023-07-13T11:17:36;25.73;;;9.27;;
32455;SDS011;18912;43.270;27.942;2023-07-13T11:38:20;19.50;;;9.77;;
32455;SDS011;18912;43.270;27.942;2023-07-13T11:40:50;14.70;;;9.65;;
32455;SDS011;18912;43.270;27.942;2023-07-13T11:43:19;16.35;;;9.57;;
32455;SDS011;18912;43.270;27.942;2023-07-13T11:45:44;18.75;;;8.85;;
32455;SDS011;18912;43.270;27.942;2023-07-13T11:48:31;22.38;;;9.23;;
32455;SDS011;18912;43.270;27.942;2023-07-13T11:51:04;15.18;;;9.52;;
32455;SDS011;18912;43.270;27.942;2023-07-13T11:53:38;16.17;;;9.30;;
32455;SDS011;18912;43.270;27.942;2023-07-13T11:56:05;23.90;;;10.07;;
32455;SDS011;18912;43.270;27.942;2023-07-13T11:58:32;20.30;;;9.65;;
32455;SDS011;18912;43.270;27.942;2023-07-13T12:00:58;13.93;;;9.48;;
32455;SDS011;18912;43.270;27.942;2023-07-13T12:03:29;17.80;;;9.32;;
32455;SDS011;18912;43.270;27.942;2023-07-13T12:05:58;18.02;;;10.02;;
32455;SDS011;18912;43.270;27.942;2023-07-13T12:08:26;18.38;;;10.27;;
32455;SDS011;18912;43.270;27.942;2023-07-13T12:11:06;18.17;;;9.68;;
32455;SDS011;18912;43.270;27.942;2023-07-13T12:13:43;19.00;;;10.20;;
32455;SDS011;18912;43.270;27.942;2023-07-13T12:16:51;26.17;;;10.02;;
32455;SDS011;18912;43.270;27.942;2023-07-13T12:19:01;13.57;;;9.88;;
32455;SDS011;18912;43.270;27.942;2023-07-13T12:21:31;19.42;;;9.85;;
32455;SDS011;18912;43.270;27.942;2023-07-13T12:23:59;14.85;;;9.45;;
32455;SDS011;18912;43.270;27.942;2023-07-13T12:26:29;19.38;;;10.02;;
32455;SDS011;18912;43.270;27.942;2023-07-13T12:28:56;21.75;;;8.55;;
32455;SDS011;18912;43.270;27.942;2023-07-13T12:31:30;19.30;;;10.30;;
32455;SDS011;18912;43.270;27.942;2023-07-13T12:34:01;17.08;;;9.40;;
32455;SDS011;18912;43.270;27.942;2023-07-13T12:36:35;20.90;;;9.40;;
32455;SDS011;18912;43.270;27.942;2023-07-13T12:39:12;27.98;;;10.35;;
32455;SDS011;18912;43.270;27.942;2023-07-13T12:44:13;14.55;;;8.82;;
32455;SDS011;18912;43.270;27.942;2023-07-13T12:46:51;17.58;;;9.20;;
32455;SDS011;18912;43.270;27.942;2023-07-13T12:49:18;18.67;;;10.18;;
32455;SDS011;18912;43.270;27.942;2023-07-13T12:51:56;19.70;;;9.38;;
32455;SDS011;18912;43.270;27.942;2023-07-13T12:54:24;14.93;;;9.73;;
32455;SDS011;18912;43.270;27.942;2023-07-13T12:56:49;18.17;;;9.38;;
32455;SDS011;18912;43.270;27.942;2023-07-13T12:59:18;24.50;;;10.20;;
32455;SDS011;18912;43.270;27.942;2023-07-13T13:01:47;17.40;;;9.75;;
32455;SDS011;18912;43.270;27.942;2023-07-13T13:04:14;28.92;;;10.23;;
32455;SDS011;18912;43.270;27.942;2023-07-13T13:06:41;29.80;;;9.70;;
32455;SDS011;18912;43.270;27.942;2023-07-13T13:09:12;19.45;;;10.27;;
32455;SDS011;18912;43.270;27.942;2023-07-13T13:11:38;13.50;;;8.85;;
32455;SDS011;18912;43.270;27.942;2023-07-13T13:16:32;12.95;;;9.07;;
32455;SDS011;18912;43.270;27.942;2023-07-13T13:19:13;18.38;;;9.25;;
32455;SDS011;18912;43.270;27.942;2023-07-13T13:21:44;18.77;;;9.25;;
32455;SDS011;18912;43.270;27.942;2023-07-13T13:24:14;15.65;;;8.95;;
32455;SDS011;18912;43.270;27.942;2023-07-13T13:26:42;22.23;;;8.50;;
32455;SDS011;18912;43.270;27.942;2023-07-13T13:29:15;30.10;;;8.55;;
32455;SDS011;18912;43.270;27.942;2023-07-13T13:31:42;15.40;;;8.15;;
32455;SDS011;18912;43.270;27.942;2023-07-13T13:36:39;16.55;;;8.90;;
32455;SDS011;18912;43.270;27.942;2023-07-13T13:39:15;26.27;;;8.93;;
32455;SDS011;18912;43.270;27.942;2023-07-13T13:41:45;14.38;;;8.55;;
32455;SDS011;18912;43.270;27.942;2023-07-13T13:44:10;15.33;;;9.07;;
32455;SDS011;18912;43.270;27.942;2023-07-13T13:46:38;22.25;;;8.73;;
32455;SDS011;18912;43.270;27.942;2023-07-13T13:49:04;18.70;;;8.98;;
32455;SDS011;18912;43.270;27.942;2023-07-13T13:51:30;21.80;;;9.37;;
32455;SDS011;18912;43.270;27.942;2023-07-13T13:53:56;15.93;;;8.45;;
32455;SDS011;18912;43.270;27.942;2023-07-13T13:56:22;17.30;;;8.13;;
32455;SDS011;18912;43.270;27.942;2023-07-13T13:58:48;19.00;;;8.80;;
32455;SDS011;18912;43.270;27.942;2023-07-13T14:01:17;17.47;;;8.73;;
32455;SDS011;18912;43.270;27.942;2023-07-13T14:03:45;18.35;;;9.02;;
32455;SDS011;18912;43.270;27.942;2023-07-13T14:06:14;14.23;;;8.90;;
32455;SDS011;18912;43.270;27.942;2023-07-13T14:08:41;16.75;;;7.65;;
32455;SDS011;18912;43.270;27.942;2023-07-13T14:13:43;14.50;;;8.27;;
32455;SDS011;18912;43.270;27.942;2023-07-13T14:16:17;13.88;;;8.60;;
32455;SDS011;18912;43.270;27.942;2023-07-13T14:18:46;22.23;;;7.90;;
32455;SDS011;18912;43.270;27.942;2023-07-13T14:21:13;18.30;;;8.30;;
32455;SDS011;18912;43.270;27.942;2023-07-13T14:23:40;24.35;;;9.02;;
32455;SDS011;18912;43.270;27.942;2023-07-13T14:26:10;13.35;;;8.85;;
32455;SDS011;18912;43.270;27.942;2023-07-13T14:28:41;21.48;;;8.50;;
32455;SDS011;18912;43.270;27.942;2023-07-13T14:31:09;19.83;;;8.18;;
32455;SDS011;18912;43.270;27.942;2023-07-13T14:33:36;20.58;;;9.15;;
32455;SDS011;18912;43.270;27.942;2023-07-13T14:36:02;21.23;;;8.13;;
32455;SDS011;18912;43.270;27.942;2023-07-13T14:38:34;16.48;;;8.10;;
32455;SDS011;18912;43.270;27.942;2023-07-13T14:41:00;14.07;;;8.30;;
32455;SDS011;18912;43.270;27.942;2023-07-13T14:45:54;15.05;;;8.07;;
32455;SDS011;18912;43.270;27.942;2023-07-13T14:48:22;16.88;;;8.02;;
32455;SDS011;18912;43.270;27.942;2023-07-13T14:50:57;11.75;;;7.88;;
32455;SDS011;18912;43.270;27.942;2023-07-13T14:53:26;25.75;;;8.85;;
32455;SDS011;18912;43.270;27.942;2023-07-13T14:55:55;13.48;;;7.43;;
32455;SDS011;18912;43.270;27.942;2023-07-13T14:58:21;10.90;;;7.80;;
32455;SDS011;18912;43.270;27.942;2023-07-13T15:00:47;23.65;;;7.88;;
32455;SDS011;18912;43.270;27.942;2023-07-13T15:05:44;18.48;;;8.02;;
32455;SDS011;18912;43.270;27.942;2023-07-13T15:08:10;19.37;;;7.17;;
32455;SDS011;18912;43.270;27.942;2023-07-13T15:10:36;20.40;;;7.72;;
32455;SDS011;18912;43.270;27.942;2023-07-13T15:13:22;16.38;;;8.18;;
32455;SDS011;18912;43.270;27.942;2023-07-13T15:18:19;22.35;;;7.90;;
32455;SDS011;18912;43.270;27.942;2023-07-13T15:20:48;14.95;;;7.55;;
32455;SDS011;18912;43.270;27.942;2023-07-13T15:23:15;22.45;;;8.23;;
32455;SDS011;18912;43.270;27.942;2023-07-13T15:25:43;16.90;;;8.05;;
32455;SDS011;18912;43.270;27.942;2023-07-13T15:28:09;14.07;;;8.30;;
32455;SDS011;18912;43.270;27.942;2023-07-13T15:30:39;18.23;;;9.05;;
32455;SDS011;18912;43.270;27.942;2023-07-13T15:33:14;13.80;;;8.65;;
32455;SDS011;18912;43.270;27.942;2023-07-13T15:35:48;16.73;;;8.25;;
32455;SDS011;18912;43.270;27.942;2023-07-13T15:38:17;17.92;;;8.98;;
32455;SDS011;18912;43.270;27.942;2023-07-13T15:41:09;21.23;;;9.60;;
32455;SDS011;18912;43.270;27.942;2023-07-13T15:43:49;14.73;;;9.50;;
32455;SDS011;18912;43.270;27.942;2023-07-13T15:46:22;17.45;;;9.15;;
32455;SDS011;18912;43.270;27.942;2023-07-13T15:48:52;37.78;;;11.43;;
32455;SDS011;18912;43.270;27.942;2023-07-13T15:53:55;20.48;;;10.88;;
32455;SDS011;18912;43.270;27.942;2023-07-13T15:56:25;15.75;;;10.98;;
32455;SDS011;18912;43.270;27.942;2023-07-13T15:58:52;17.38;;;10.13;;
32455;SDS011;18912;43.270;27.942;2023-07-13T16:03:46;22.00;;;11.50;;
32455;SDS011;18912;43.270;27.942;2023-07-13T16:09:13;29.30;;;12.38;;